NCAR-RAP Real-Time Weather Data

Output produced by METARs form (25 August 2019  22:00 UTC)
found at http://weather.rap.ucar.edu/surface/
 
Conditions at: KIND observed 25 August 2019  21:54 UTC
Temperature: 26.7°C (80°F)
Dewpoint: 12.8°C (55°F) [RH = 42%]
Pressure (altimeter): 29.98 inches Hg (1015.3 mb)
[Sea-level pressure: 1014.6 mb]
Winds: from the ESE (120 degrees) at 10 MPH (9 knots; 4.7 m/s)
Visibility: 10 or more miles (16+ km)
Ceiling: 25000 feet AGL
Clouds: few clouds at 5000 feet AGL
scattered clouds at 14000 feet AGL
broken clouds at 25000 feet AGL
Present Weather: no significant weather observed at this time
KIND 252154Z 12009KT 10SM FEW050 SCT140 BKN250 27/13 A2998 RMK AO2 SLP146 T02670128